»·PEaware :: AAL170 KLAX-KSFO

AAL170 :: KLAX-KSFO

FLIGHT INFORMATION

Flight Status: Arrived
Operator:
American Airlines
More flights by this operator :: More flights under this callsign
Pilot: Zachary T. (20654)
Aircraft: Unknown
(/L)
More flights by this aircraft type
Origin: KLAX Los Angeles Intl
United States
Destination: KSFO San Francisco Intl
United States
More flights between these airports :: More routes between these airports
Route: +VTU8 RZS STOKD SERFR SERFR3
File this flight plan on PilotEdge
Remarks: PBN / A1B1C1D1O1S1 DOF / 181002 REG / N321SB EET / KZOA0025 OPR / AAL PER / C RMK / TCAS SIMBRIEF
Altitude:
(Current/Filed)
30,000ft
Speed:
(Current/Filed)
435kts
Departed: 02-Oct-18 07:33 PM
Arrived: 02-Oct-18 09:01 PM
Distance/Time
Traveled:
294nm/1:28
Distance/Time
To Go:
Arrived

Flight Plot

Page will automatically refresh every two minutes.

Flight plan parsing failed; only flown route is shown


Map Options




Map Legend


Flown Route
Filed Route
Departure Airport
Arrival Airport
Navaid (VOR, NDB)
Fix

Horizontal Profiles

Position Reports

Time Latitude Longitude Heading Altitude Ground
Speed
02-Oct-18 18:56 33.945269 -118.409734 266 140ft 0kts
02-Oct-18 18:57 33.945269 -118.409734 266 140ft 0kts
02-Oct-18 18:58 33.945269 -118.409734 266 140ft 0kts
02-Oct-18 18:59 33.945269 -118.409734 266 140ft 0kts
02-Oct-18 19:00 33.945269 -118.409734 266 140ft 0kts
02-Oct-18 19:01 33.945269 -118.409734 266 140ft 0kts
02-Oct-18 19:02 33.945269 -118.409734 266 140ft 0kts
02-Oct-18 19:03 33.945269 -118.409734 266 140ft 0kts
02-Oct-18 19:04 33.945269 -118.409734 266 140ft 0kts
02-Oct-18 19:05 33.945269 -118.409734 266 140ft 0kts
02-Oct-18 19:06 33.945269 -118.409734 266 140ft 0kts
02-Oct-18 19:07 33.945269 -118.409734 266 140ft 0kts
02-Oct-18 19:08 33.945269 -118.409734 266 140ft 0kts
02-Oct-18 19:09 33.945269 -118.409734 266 140ft 0kts
02-Oct-18 19:10 33.945269 -118.409734 266 140ft 0kts
02-Oct-18 19:11 33.945269 -118.409734 266 140ft 0kts
02-Oct-18 19:12 33.945269 -118.409734 266 140ft 0kts
02-Oct-18 19:13 33.945269 -118.409734 266 140ft 0kts
02-Oct-18 19:14 33.945269 -118.409734 266 140ft 0kts
02-Oct-18 19:15 33.945269 -118.409734 266 140ft 0kts
02-Oct-18 19:16 33.945273 -118.409662 266 140ft 1kts
02-Oct-18 19:17 33.945283 -118.408731 283 140ft 2kts
02-Oct-18 19:18 33.944977 -118.407870 294 140ft 0kts
02-Oct-18 19:19 33.944978 -118.407874 294 140ft 0kts
02-Oct-18 19:20 33.944979 -118.407874 294 140ft 0kts
02-Oct-18 19:21 33.944979 -118.407875 294 140ft 0kts
02-Oct-18 19:22 33.944999 -118.407927 294 140ft 3kts
02-Oct-18 19:23 33.946484 -118.409612 3 140ft 0kts
02-Oct-18 19:24 33.948628 -118.406863 83 140ft 17kts
02-Oct-18 19:25 33.949193 -118.401056 83 140ft 24kts
02-Oct-18 19:26 33.949423 -118.401754 352 140ft 0kts
02-Oct-18 19:27 33.950172 -118.402363 265 140ft 0kts
02-Oct-18 19:28 33.950172 -118.402366 265 140ft 0kts
02-Oct-18 19:29 33.950172 -118.402367 265 140ft 0kts
02-Oct-18 19:30 33.950172 -118.402368 265 140ft 0kts
02-Oct-18 19:31 33.950172 -118.402368 265 140ft 0kts
02-Oct-18 19:32 33.950172 -118.402369 265 140ft 0kts
02-Oct-18 19:33 33.950172 -118.402370 265 140ft 0kts
02-Oct-18 19:34 33.950172 -118.402371 265 140ft 0kts
02-Oct-18 19:35 33.947679 -118.427355 263 221ft 169kts
02-Oct-18 19:36 33.941751 -118.492673 264 2605ft 234kts
02-Oct-18 19:37 33.933799 -118.577144 264 4951ft 260kts
02-Oct-18 19:38 33.924338 -118.663943 263 6595ft 260kts
02-Oct-18 19:39 33.916664 -118.750866 271 10372ft 271kts
02-Oct-18 19:40 33.945505 -118.809966 307 11330ft 335kts
02-Oct-18 19:41 34.006006 -118.897506 307 12971ft 357kts
02-Oct-18 19:42 34.072283 -118.990116 308 15999ft 371kts
02-Oct-18 19:43 34.142833 -119.084359 311 18796ft 386kts
02-Oct-18 19:44 34.201267 -119.158067 311 20655ft 398kts
02-Oct-18 19:45 34.256343 -119.227639 311 22175ft 407kts
02-Oct-18 19:46 34.284530 -119.263296 311 22878ft 412kts
02-Oct-18 19:47 34.358942 -119.357602 311 24523ft 422kts
02-Oct-18 19:48 34.437237 -119.457108 311 25985ft 432kts
02-Oct-18 19:49 34.507459 -119.546603 311 27118ft 440kts
02-Oct-18 19:50 34.592387 -119.655168 311 28325ft 447kts
02-Oct-18 19:51 34.677933 -119.764890 311 29612ft 448kts
02-Oct-18 19:52 34.750032 -119.857678 311 29991ft 443kts
02-Oct-18 19:53 34.828578 -119.959082 311 29995ft 443kts
02-Oct-18 19:54 34.912955 -120.068327 311 29995ft 443kts
02-Oct-18 19:55 34.997315 -120.177903 311 29995ft 443kts
02-Oct-18 19:56 35.081559 -120.287688 310 29995ft 443kts
02-Oct-18 19:57 35.165515 -120.397454 310 29995ft 443kts
02-Oct-18 19:58 35.237055 -120.491271 310 29995ft 443kts
02-Oct-18 19:59 35.320681 -120.601272 310 29995ft 443kts
02-Oct-18 20:00 35.404566 -120.711975 310 29995ft 443kts
02-Oct-18 20:01 35.488868 -120.822706 314 29987ft 444kts
02-Oct-18 20:02 35.584109 -120.912487 320 29995ft 446kts
02-Oct-18 20:03 35.683275 -121.003907 320 29995ft 446kts
02-Oct-18 20:04 35.782268 -121.095703 320 29995ft 446kts
02-Oct-18 20:05 35.880926 -121.187596 320 29995ft 446kts
02-Oct-18 20:06 35.884860 -121.191267 320 29995ft 446kts
02-Oct-18 20:07 35.952240 -121.254243 320 29995ft 446kts
02-Oct-18 20:08 36.050965 -121.346797 320 29995ft 446kts
02-Oct-18 20:09 36.154323 -121.431650 325 29995ft 447kts
02-Oct-18 20:10 36.259227 -121.513345 325 29796ft 435kts
02-Oct-18 20:11 36.343154 -121.578930 324 27667ft 409kts
02-Oct-18 20:12 36.396755 -121.620998 324 26388ft 393kts
02-Oct-18 20:13 36.486579 -121.691737 324 24157ft 372kts
02-Oct-18 20:14 36.572170 -121.759632 324 22026ft 358kts
02-Oct-18 20:15 36.654396 -121.824808 324 19990ft 346kts
02-Oct-18 20:16 36.721807 -121.877956 326 18321ft 338kts
02-Oct-18 20:17 36.808294 -121.912818 343 16627ft 343kts
02-Oct-18 20:18 36.871223 -121.930368 343 15454ft 337kts
02-Oct-18 20:19 36.961343 -121.956466 339 13750ft 330kts
02-Oct-18 20:20 37.048572 -121.990611 338 11552ft 324kts
02-Oct-18 20:21 37.130288 -122.022522 338 10444ft 288kts
02-Oct-18 20:22 37.205111 -122.051840 338 9145ft 271kts
02-Oct-18 20:23 37.275874 -122.079628 338 7955ft 261kts
02-Oct-18 20:24 37.345400 -122.107072 338 6473ft 260kts
02-Oct-18 20:25 37.413829 -122.129276 345 5499ft 254kts
02-Oct-18 20:26 37.479821 -122.148390 345 3967ft 252kts
02-Oct-18 20:27 37.536883 -122.188608 308 2852ft 217kts
02-Oct-18 20:28 37.564723 -122.246606 298 1925ft 163kts
02-Oct-18 20:29 37.584691 -122.294005 297 1173ft 148kts
02-Oct-18 20:30 37.603694 -122.339258 297 416ft 146kts
02-Oct-18 20:31 37.622502 -122.384153 297 403ft 182kts
02-Oct-18 20:32 37.651341 -122.453223 297 3297ft 221kts
02-Oct-18 20:33 37.679276 -122.521472 288 4338ft 220kts
02-Oct-18 20:34 37.691724 -122.596330 268 4045ft 219kts
02-Oct-18 20:35 37.645326 -122.621382 139 4076ft 226kts
02-Oct-18 20:36 37.608111 -122.558013 124 4077ft 225kts
02-Oct-18 20:37 37.575549 -122.491336 114 4076ft 224kts
02-Oct-18 20:38 37.548607 -122.420391 114 4076ft 224kts
02-Oct-18 20:39 37.521639 -122.349430 114 4076ft 224kts
02-Oct-18 20:40 37.494705 -122.278604 114 4076ft 224kts
02-Oct-18 20:41 37.467723 -122.207674 114 4076ft 224kts
02-Oct-18 20:42 37.476567 -122.141936 27 3418ft 215kts
02-Oct-18 20:43 37.532320 -122.113973 356 3154ft 217kts
02-Oct-18 20:44 37.552603 -122.163137 264 3153ft 161kts
02-Oct-18 20:45 37.562246 -122.217394 278 3137ft 161kts
02-Oct-18 20:46 37.572744 -122.265870 298 1496ft 140kts
02-Oct-18 20:47 37.591004 -122.307144 297 612ft 127kts
02-Oct-18 20:48 37.607490 -122.348173 296 243ft 127kts
02-Oct-18 20:49 37.631560 -122.407202 293 878ft 190kts
02-Oct-18 20:50 37.654968 -122.473900 294 3061ft 216kts
02-Oct-18 20:51 37.672645 -122.544858 250 3075ft 217kts
02-Oct-18 20:52 37.623907 -122.548627 127 4005ft 225kts
02-Oct-18 20:53 37.587795 -122.484592 124 4076ft 223kts
02-Oct-18 20:54 37.554119 -122.415101 119 4082ft 272kts
02-Oct-18 20:55 37.520210 -122.342146 119 4076ft 266kts
02-Oct-18 20:56 37.484840 -122.266074 119 4076ft 264kts
02-Oct-18 20:57 37.451847 -122.184108 93 4088ft 262kts
02-Oct-18 20:58 37.497555 -122.123708 11 4062ft 257kts
02-Oct-18 20:59 37.540945 -122.178492 284 4023ft 258kts
02-Oct-18 21:00 37.568287 -122.256069 299 2695ft 220kts
02-Oct-18 21:01 37.596378 -122.323942 295 925ft 207kts
02-Oct-18 21:02 37.620167 -122.377822 292 36ft 144kts
02-Oct-18 21:03 37.627509 -122.392803 349 27ft 0kts
02-Oct-18 21:04 37.627762 -122.392869 346 27ft 0kts

Navigation Log

Ident Type
Flight plan parsing failed, navigation log unavailable